Time;durP1;ratioP1;P1;durP2;ratioP2;P2;SDS_P1;SDS_P2;PMS_P1;PMS_P2;Temp;Humidity;BMP_temperature;BMP_pressure;BME280_temperature;BME280_humidity;BME280_pressure;Samples;Min_cycle;Max_cycle;Signal;HPM_P1;HPM_P2
2021/08/15 00:00:08;;;;;;;6.97;2.65;;;;;;;15.94;51.90;101571.38;5079168;28;20542;-66
2021/08/15 00:02:38;;;;;;;9.50;4.07;;;;;;;15.84;52.68;101578.06;5078148;28;20075;-67
2021/08/15 00:05:05;;;;;;;9.80;4.15;;;;;;;15.82;52.48;101579.03;5077366;28;20585;-68
2021/08/15 00:07:30;;;;;;;10.18;3.63;;;;;;;15.86;52.60;101564.78;5081207;28;20047;-67
2021/08/15 00:09:55;;;;;;;12.20;3.63;;;;;;;15.37;53.52;101566.34;5076836;28;20335;-67
2021/08/15 00:12:21;;;;;;;10.18;3.90;;;;;;;15.51;53.65;101570.09;5078132;28;20035;-68
2021/08/15 00:14:46;;;;;;;8.32;2.95;;;;;;;15.69;53.56;101565.66;5080177;28;20032;-67
2021/08/15 00:17:14;;;;;;;10.07;2.90;;;;;;;15.82;52.92;101561.47;5077942;28;20032;-67
2021/08/15 00:19:40;;;;;;;11.18;3.90;;;;;;;15.78;52.91;101552.00;5076052;28;20408;-70
2021/08/15 00:22:05;;;;;;;11.30;3.65;;;;;;;15.26;54.03;101544.09;5076901;28;20033;-68
2021/08/15 00:24:35;;;;;;;14.77;4.13;;;;;;;14.97;55.22;101543.72;5059387;28;20029;-68
2021/08/15 00:27:00;;;;;;;11.52;4.03;;;;;;;15.17;54.37;101538.31;5077949;28;20028;-68
2021/08/15 00:29:26;;;;;;;8.85;3.53;;;;;;;15.38;54.18;101533.78;5077156;28;20043;-68
2021/08/15 00:31:52;;;;;;;7.20;3.58;;;;;;;15.23;54.33;101537.19;5077399;28;20042;-68
2021/08/15 00:34:17;;;;;;;15.23;4.03;;;;;;;15.40;53.96;101523.19;5079409;28;20036;-68
2021/08/15 00:36:43;;;;;;;10.38;3.53;;;;;;;15.30;54.09;101535.94;5081243;28;20393;-68
2021/08/15 00:39:08;;;;;;;9.43;3.80;;;;;;;15.37;54.04;101529.47;5076016;28;20074;-67
2021/08/15 00:41:34;;;;;;;12.43;4.18;;;;;;;15.48;54.22;101530.69;5079805;28;20032;-67
2021/08/15 00:44:01;;;;;;;7.32;3.83;;;;;;;15.49;54.00;101532.41;5077399;28;20127;-67
2021/08/15 00:46:28;;;;;;;10.05;3.78;;;;;;;15.48;54.07;101530.69;5079476;28;20039;-68
2021/08/15 00:48:54;;;;;;;15.90;4.18;;;;;;;15.44;53.65;101516.84;5075862;28;20062;-67
2021/08/15 00:51:20;;;;;;;16.08;4.93;;;;;;;15.45;54.05;101510.63;5077548;28;20440;-67
2021/08/15 00:53:49;;;;;;;8.57;2.90;;;;;;;15.49;53.78;101508.72;5074059;28;20024;-68
2021/08/15 00:56:15;;;;;;;9.45;3.33;;;;;;;15.64;53.97;101502.66;5083623;28;20614;-67
2021/08/15 00:58:43;;;;;;;11.95;4.03;;;;;;;15.72;53.61;101497.81;5077247;28;20038;-67
2021/08/15 01:01:12;;;;;;;10.57;3.63;;;;;;;15.70;53.60;101501.47;5078636;28;20027;-68
2021/08/15 01:03:39;;;;;;;9.57;2.97;;;;;;;15.72;53.88;101492.56;5076501;28;20428;-68
2021/08/15 01:06:07;;;;;;;13.70;4.40;;;;;;;15.82;53.46;101492.94;5068640;28;20036;-67
2021/08/15 01:08:34;;;;;;;10.30;2.58;;;;;;;15.81;53.68;101488.59;5075400;28;20522;-68
2021/08/15 01:11:08;;;;;;;9.40;3.53;;;;;;;15.93;53.38;101498.50;5076159;28;20408;-67
2021/08/15 01:13:38;;;;;;;6.97;2.72;;;;;;;15.97;53.06;101522.91;5074319;28;20032;-68
2021/08/15 01:18:39;;;;;;;8.23;3.00;;;;;;;15.70;53.77;101531.31;5020678;28;20083;-69
2021/08/15 01:21:07;;;;;;;7.57;3.40;;;;;;;15.59;53.58;101526.63;5037557;28;20045;-69
2021/08/15 01:23:34;;;;;;;5.70;2.92;;;;;;;15.60;53.74;101535.38;5040049;28;20045;-69
2021/08/15 01:26:01;;;;;;;6.95;2.70;;;;;;;15.61;54.03;101528.31;5035168;28;20046;-69
2021/08/15 01:28:27;;;;;;;11.18;3.47;;;;;;;15.59;53.71;101526.63;5041419;28;20099;-68
2021/08/15 01:30:53;;;;;;;6.38;3.33;;;;;;;15.58;53.62;101530.16;5032318;28;20037;-68
2021/08/15 01:33:31;;;;;;;11.48;4.13;;;;;;;15.51;53.39;101525.28;5050930;28;20037;-68
2021/08/15 01:35:57;;;;;;;8.20;2.97;;;;;;;15.36;54.36;101527.75;5056652;28;20109;-69
2021/08/15 01:38:25;;;;;;;9.38;3.83;;;;;;;15.35;54.18;101520.78;5042128;28;20049;-69
2021/08/15 01:40:52;;;;;;;10.25;3.47;;;;;;;15.31;54.48;101528.94;5040672;28;20120;-68
2021/08/15 01:43:18;;;;;;;10.48;3.95;;;;;;;15.23;54.69;101525.81;5042880;28;20041;-69
2021/08/15 01:45:43;;;;;;;9.68;3.65;;;;;;;15.04;54.91;101534.59;5042274;28;20085;-70
2021/08/15 01:48:09;;;;;;;10.38;2.97;;;;;;;15.07;54.37;101518.63;5060060;28;20040;-71
2021/08/15 01:50:35;;;;;;;11.73;3.22;;;;;;;14.98;55.08;101522.56;5040346;28;20486;-69
2021/08/15 01:53:01;;;;;;;10.88;4.03;;;;;;;15.04;55.54;101516.16;5037633;28;20679;-71
2021/08/15 01:55:27;;;;;;;8.52;3.42;;;;;;;14.93;55.30;101514.03;5038107;28;20033;-69
2021/08/15 01:57:52;;;;;;;7.70;2.78;;;;;;;15.03;55.33;101518.84;5049495;28;20041;-69
2021/08/15 02:00:18;;;;;;;6.38;2.95;;;;;;;15.06;55.08;101519.56;5037769;28;20049;-71
2021/08/15 02:02:43;;;;;;;13.63;3.75;;;;;;;15.08;55.33;101514.22;5040818;28;20021;-72
2021/08/15 02:05:15;;;;;;;9.90;3.30;;;;;;;15.14;55.39;101532.34;5042647;28;20038;-69
2021/08/15 02:07:41;;;;;;;;;;;;;;;15.12;55.21;101523.66;5042902;28;20385;-69
2021/08/15 02:10:07;;;;;;;9.43;3.83;;;;;;;15.16;55.36;101518.16;5039966;28;19916;-68
2021/08/15 02:12:32;;;;;;;8.15;3.08;;;;;;;15.15;55.45;101519.13;5041472;28;20116;-68
2021/08/15 02:14:58;;;;;;;9.13;3.92;;;;;;;15.12;55.32;101521.88;5038282;28;20516;-69
2021/08/15 02:17:24;;;;;;;11.23;3.65;;;;;;;15.22;54.91;101516.22;5036903;28;20120;-68
2021/08/15 02:19:52;;;;;;;6.85;4.28;;;;;;;15.06;55.26;101514.31;5038906;28;20532;-70
2021/08/15 02:22:18;;;;;;;11.80;4.20;;;;;;;15.05;55.86;101515.22;5038786;28;20093;-69
2021/08/15 02:24:43;;;;;;;6.00;3.58;;;;;;;15.20;55.56;101508.34;5041548;28;20104;-69
2021/08/15 02:27:09;;;;;;;8.30;3.75;;;;;;;15.13;55.81;101509.59;5050572;28;20053;-69
2021/08/15 02:29:34;;;;;;;9.55;3.72;;;;;;;15.09;55.55;101506.25;5041016;28;20212;-71
2021/08/15 02:32:00;;;;;;;6.75;3.15;;;;;;;14.97;55.96;101498.97;5038695;28;20040;-70
2021/08/15 02:34:28;;;;;;;3.78;2.53;;;;;;;15.05;55.85;101496.78;5045185;28;20087;-68
2021/08/15 02:36:54;;;;;;;7.03;4.38;;;;;;;15.03;55.90;101500.44;5058462;28;20494;-70
2021/08/15 02:39:19;;;;;;;8.52;3.78;;;;;;;14.97;56.13;101499.81;5036347;28;20039;-67
2021/08/15 02:41:45;;;;;;;6.25;3.60;;;;;;;15.05;56.17;101493.31;5059667;28;20025;-69
2021/08/15 02:44:11;;;;;;;10.20;4.18;;;;;;;14.97;56.38;101485.81;5055169;28;20060;-68
2021/08/15 02:46:36;;;;;;;6.60;3.97;;;;;;;15.06;56.22;101480.09;5038834;28;20083;-70
2021/08/15 02:49:04;;;;;;;7.10;3.55;;;;;;;15.15;56.08;101482.25;5025928;28;20045;-69
2021/08/15 02:51:32;;;;;;;7.13;3.60;;;;;;;15.22;56.06;101487.25;5038731;28;20040;-67
2021/08/15 02:53:58;;;;;;;4.47;3.30;;;;;;;15.17;55.75;101490.09;5059671;28;20040;-68
2021/08/15 02:56:24;;;;;;;6.72;3.00;;;;;;;15.14;55.89;101475.28;5036307;28;20029;-69
2021/08/15 02:58:49;;;;;;;3.50;2.88;;;;;;;15.11;56.05;101485.97;5050167;28;20095;-69
2021/08/15 03:01:14;;;;;;;5.20;2.65;;;;;;;15.17;55.74;101480.41;5041354;28;20676;-67
2021/08/15 03:03:40;;;;;;;4.85;2.33;;;;;;;15.13;55.89;101478.00;5037549;28;20039;-68
2021/08/15 03:06:05;;;;;;;3.65;2.47;;;;;;;15.10;55.56;101460.56;5039005;28;20033;-68
2021/08/15 03:08:31;;;;;;;6.10;2.40;;;;;;;15.03;55.53;101461.78;5037834;28;20044;-71
2021/08/15 03:10:56;;;;;;;6.55;2.25;;;;;;;14.90;56.03;101447.53;5040787;28;20045;-71
2021/08/15 03:13:22;;;;;;;8.60;2.90;;;;;;;14.93;55.74;101450.03;5036527;28;20044;-68
2021/08/15 03:15:47;;;;;;;4.90;2.42;;;;;;;14.98;56.02;101443.59;5037667;28;20033;-69
2021/08/15 03:18:16;;;;;;;11.65;2.95;;;;;;;14.97;55.68;101434.00;5056201;28;20052;-69
2021/08/15 03:20:42;;;;;;;6.60;2.90;;;;;;;14.95;56.09;101442.91;5041855;28;20473;-69
2021/08/15 03:23:08;;;;;;;3.92;3.00;;;;;;;14.95;55.69;101437.66;5055868;28;20060;-71
2021/08/15 03:25:37;;;;;;;3.67;2.28;;;;;;;14.98;55.87;101432.22;5038851;28;20140;-69
2021/08/15 03:28:03;;;;;;;10.80;4.07;;;;;;;14.98;56.10;101426.94;5042341;28;20259;-69
2021/08/15 03:30:29;;;;;;;3.97;2.38;;;;;;;15.07;56.00;101431.75;5041465;28;20394;-69
2021/08/15 03:32:54;;;;;;;5.38;2.47;;;;;;;15.08;55.88;101433.47;5059225;28;20029;-71
2021/08/15 03:35:20;;;;;;;4.85;2.47;;;;;;;15.13;55.98;101433.25;5040826;28;20449;-68
2021/08/15 03:37:45;;;;;;;5.93;2.63;;;;;;;15.14;55.90;101433.13;5042715;28;20671;-70
2021/08/15 03:40:11;;;;;;;4.13;2.80;;;;;;;15.23;55.77;101429.22;5058940;28;20132;-70
2021/08/15 03:42:37;;;;;;;10.88;2.97;;;;;;;15.27;55.75;101416.78;5039765;28;20559;-70
2021/08/15 03:45:04;;;;;;;6.82;2.95;;;;;;;15.18;55.36;101421.53;5041423;28;20330;-69
2021/08/15 03:47:31;;;;;;;6.05;3.55;;;;;;;15.13;55.88;101426.19;5051994;28;20025;-70
2021/08/15 03:49:58;;;;;;;6.28;2.83;;;;;;;15.26;55.75;101425.56;5027144;28;20090;-69
2021/08/15 03:52:24;;;;;;;5.75;2.90;;;;;;;15.31;55.79;101415.69;5060836;28;20087;-70
2021/08/15 03:54:49;;;;;;;7.32;3.47;;;;;;;15.30;55.32;101422.72;5043229;28;20041;-67
2021/08/15 03:57:15;;;;;;;5.88;2.85;;;;;;;15.33;55.50;101416.47;5044025;28;20040;-69
2021/08/15 03:59:40;;;;;;;5.50;2.95;;;;;;;15.34;55.68;101424.25;5053039;28;20094;-69
2021/08/15 04:02:06;;;;;;;9.73;3.95;;;;;;;15.38;55.49;101417.91;5052923;28;20523;-72
2021/08/15 04:04:31;;;;;;;5.47;3.08;;;;;;;15.35;55.24;101419.88;5044954;28;20096;-69
2021/08/15 04:06:56;;;;;;;9.75;3.63;;;;;;;15.32;55.42;101415.59;5048601;28;20530;-70
2021/08/15 04:09:22;;;;;;;5.80;2.83;;;;;;;15.35;55.67;101425.13;5037889;28;20044;-70
2021/08/15 04:11:47;;;;;;;10.32;3.47;;;;;;;15.35;55.34;101430.41;5045596;28;20025;-69
2021/08/15 04:14:13;;;;;;;5.25;3.47;;;;;;;15.34;55.16;101428.69;5060125;28;20052;-72
2021/08/15 04:16:40;;;;;;;7.25;3.50;;;;;;;15.33;55.40;101427.00;5043366;28;20067;-70
2021/08/15 04:19:06;;;;;;;7.60;4.20;;;;;;;15.28;55.34;101432.50;5043887;28;20468;-69
2021/08/15 04:21:31;;;;;;;7.60;2.53;;;;;;;15.34;55.41;101426.88;5042585;28;20103;-69
2021/08/15 04:23:57;;;;;;;7.50;3.55;;;;;;;15.24;55.70;101433.56;5043618;28;20029;-68
2021/08/15 04:26:23;;;;;;;6.22;3.00;;;;;;;15.28;55.22;101421.09;5039934;28;20033;-69
2021/08/15 04:28:48;;;;;;;6.57;3.00;;;;;;;15.23;55.50;101431.00;5042535;28;20101;-69
2021/08/15 04:31:14;;;;;;;8.98;3.88;;;;;;;15.22;55.57;101434.59;5041294;28;20075;-67
2021/08/15 04:33:39;;;;;;;6.63;3.95;;;;;;;15.21;55.58;101424.94;5044315;28;20436;-69
2021/08/15 04:36:05;;;;;;;6.82;3.08;;;;;;;15.30;55.60;101411.31;5044125;28;20073;-70
2021/08/15 04:38:30;;;;;;;5.68;3.25;;;;;;;15.22;55.66;101409.09;5062941;28;20051;-70
2021/08/15 04:40:56;;;;;;;7.63;3.80;;;;;;;15.27;55.53;101414.13;5042346;28;20061;-70
2021/08/15 04:43:21;;;;;;;9.48;4.00;;;;;;;15.24;55.49;101407.25;5040053;28;20405;-70
2021/08/15 04:45:47;;;;;;;7.38;3.90;;;;;;;15.20;55.54;101408.28;5059708;28;20148;-69
2021/08/15 04:48:16;;;;;;;8.65;3.85;;;;;;;15.22;55.74;101416.16;5036005;28;20072;-68
2021/08/15 04:50:42;;;;;;;7.38;2.83;;;;;;;15.21;55.83;101409.13;5043482;28;20029;-70
2021/08/15 04:53:08;;;;;;;7.40;3.47;;;;;;;15.29;55.87;101407.00;5052493;28;20037;-70
2021/08/15 04:55:34;;;;;;;6.40;3.05;;;;;;;15.32;55.66;101409.47;5044767;28;20028;-70
2021/08/15 04:57:59;;;;;;;10.93;4.90;;;;;;;15.41;55.63;101414.25;5041626;28;20043;-69
2021/08/15 05:00:26;;;;;;;11.13;4.32;;;;;;;15.41;55.33;101411.63;5044600;28;20418;-68
2021/08/15 05:02:52;;;;;;;6.93;3.85;;;;;;;15.21;55.84;101417.88;5038829;28;20044;-69
2021/08/15 05:05:17;;;;;;;4.32;2.85;;;;;;;15.41;55.75;101421.31;5038475;28;20588;-69
2021/08/15 05:07:43;;;;;;;8.68;3.25;;;;;;;15.48;55.52;101420.94;5045909;28;20036;-70
2021/08/15 05:10:09;;;;;;;4.20;2.78;;;;;;;15.59;55.33;101422.97;5039718;28;20040;-69
2021/08/15 05:12:34;;;;;;;5.80;3.28;;;;;;;15.63;55.30;101421.06;5038394;28;20061;-69
2021/08/15 05:15:00;;;;;;;9.45;4.97;;;;;;;15.47;55.09;101416.59;5044665;28;20025;-68
2021/08/15 05:17:25;;;;;;;9.27;4.63;;;;;;;15.38;55.20;101414.44;5059707;28;20397;-69
2021/08/15 05:19:50;;;;;;;8.18;4.20;;;;;;;15.52;55.31;101405.81;5044621;28;20037;-69
2021/08/15 05:22:16;;;;;;;8.98;5.13;;;;;;;15.42;55.45;101410.72;5041999;28;20097;-69
2021/08/15 05:24:41;;;;;;;8.23;4.20;;;;;;;15.42;55.50;101415.97;5040020;28;20032;-69
2021/08/15 05:27:07;;;;;;;7.65;4.07;;;;;;;15.50;55.58;101416.41;5056209;28;20060;-69
2021/08/15 05:29:32;;;;;;;12.00;5.43;;;;;;;15.53;55.70;101413.63;5037870;28;20024;-69
2021/08/15 05:31:58;;;;;;;9.38;4.15;;;;;;;15.63;55.76;101407.88;5055834;28;20047;-68
2021/08/15 05:34:27;;;;;;;8.15;5.28;;;;;;;15.51;55.23;101412.88;5039818;28;20036;-68
2021/08/15 05:36:53;;;;;;;4.50;3.20;;;;;;;15.40;55.60;101422.25;5055535;28;20045;-69
2021/08/15 05:39:19;;;;;;;5.38;2.85;;;;;;;15.36;55.48;101416.28;5039491;28;20041;-68
2021/08/15 05:41:45;;;;;;;3.78;2.00;;;;;;;15.22;55.92;101430.16;5038812;28;20483;-69
2021/08/15 05:44:10;;;;;;;7.35;2.53;;;;;;;15.21;56.00;101422.31;5038921;28;20121;-68
2021/08/15 05:46:36;;;;;;;6.95;2.10;;;;;;;15.14;55.99;101419.97;5052382;28;20107;-69
2021/08/15 05:49:01;;;;;;;4.05;1.90;;;;;;;15.22;56.19;101411.75;5052835;28;20043;-69
2021/08/15 05:51:27;;;;;;;4.03;1.95;;;;;;;15.23;56.13;101421.31;5039087;28;20143;-67
2021/08/15 05:53:52;;;;;;;7.13;2.10;;;;;;;15.27;55.95;101416.78;5034117;28;20140;-69
2021/08/15 05:56:17;;;;;;;5.38;2.08;;;;;;;15.14;55.64;101422.59;5037875;28;20036;-70
2021/08/15 05:58:43;;;;;;;3.08;1.80;;;;;;;14.95;56.13;101419.22;5054667;28;20051;-67
2021/08/15 06:01:09;;;;;;;2.47;1.90;;;;;;;15.02;56.27;101419.75;5035414;28;20080;-68
2021/08/15 06:03:34;;;;;;;5.22;1.85;;;;;;;14.89;56.55;101417.72;5036770;28;20041;-69
2021/08/15 06:06:00;;;;;;;4.85;2.22;;;;;;;15.04;56.06;101410.84;5051173;28;20481;-67
2021/08/15 06:08:25;;;;;;;3.38;1.38;;;;;;;15.16;56.05;101415.47;5052809;28;20037;-66
2021/08/15 06:10:53;;;;;;;5.80;1.83;;;;;;;15.23;55.72;101423.13;5036463;28;20047;-68
2021/08/15 06:13:19;;;;;;;5.10;2.45;;;;;;;15.30;55.76;101411.31;5050741;28;20040;-70
2021/08/15 06:15:45;;;;;;;5.57;1.83;;;;;;;15.38;55.23;101419.69;5052446;28;20025;-68
2021/08/15 06:18:10;;;;;;;2.83;1.35;;;;;;;15.26;55.36;101415.03;5056413;28;20520;-68
2021/08/15 06:20:35;;;;;;;3.45;1.77;;;;;;;15.26;55.58;101409.78;5036392;28;20072;-67
2021/08/15 06:23:01;;;;;;;3.47;1.80;;;;;;;15.32;55.70;101409.47;5038921;28;20037;-68
2021/08/15 06:25:26;;;;;;;2.33;1.58;;;;;;;15.30;55.59;101401.63;5037859;28;20025;-70
2021/08/15 06:27:52;;;;;;;5.22;1.90;;;;;;;15.30;55.64;101409.53;5039472;28;20061;-70
2021/08/15 06:30:18;;;;;;;7.63;1.92;;;;;;;15.36;55.47;101411.88;5055071;28;20037;-70
2021/08/15 06:32:52;;;;;;;3.33;1.30;;;;;;;15.42;55.38;101415.97;5034644;28;20397;-68
2021/08/15 06:35:23;;;;;;;3.45;1.92;;;;;;;15.40;55.32;101415.19;5037604;28;20037;-67
2021/08/15 06:37:52;;;;;;;2.63;1.40;;;;;;;15.50;55.29;101407.66;5057142;28;20072;-70
2021/08/15 06:40:20;;;;;;;2.85;1.42;;;;;;;15.56;55.21;101413.47;5035650;28;20295;-68
2021/08/15 06:42:46;;;;;;;4.03;1.83;;;;;;;15.64;55.31;101409.56;5035907;28;20030;-70
2021/08/15 06:45:12;;;;;;;2.90;2.00;;;;;;;15.68;55.22;101416.38;5045445;28;20021;-68
2021/08/15 06:47:38;;;;;;;2.53;2.05;;;;;;;15.69;54.82;101408.41;5038679;28;20124;-68
2021/08/15 06:50:05;;;;;;;7.22;1.33;;;;;;;15.63;54.87;101403.44;5041155;28;20120;-71
2021/08/15 06:52:31;;;;;;;5.13;2.00;;;;;;;15.68;55.00;101405.84;5043204;28;20108;-67
2021/08/15 06:54:58;;;;;;;4.72;2.03;;;;;;;15.70;54.90;101410.09;5039954;28;20502;-69
2021/08/15 06:57:23;;;;;;;4.18;1.70;;;;;;;15.70;54.92;101412.72;5044447;28;20076;-70
2021/08/15 06:59:49;;;;;;;4.82;1.65;;;;;;;15.64;54.60;101414.84;5042820;28;20057;-69
2021/08/15 07:02:14;;;;;;;5.90;1.65;;;;;;;15.59;55.07;101408.03;5037353;28;20047;-70
2021/08/15 07:04:40;;;;;;;3.08;1.08;;;;;;;15.48;54.77;101410.41;5041844;28;20071;-69
2021/08/15 07:07:05;;;;;;;3.47;1.77;;;;;;;15.54;54.81;101412.69;5041602;28;20071;-69
2021/08/15 07:09:30;;;;;;;3.10;1.77;;;;;;;15.69;55.01;101415.47;5038595;28;20048;-69
2021/08/15 07:11:56;;;;;;;2.20;1.42;;;;;;;15.78;54.29;101407.06;5065409;28;20268;-69
2021/08/15 07:14:22;;;;;;;2.47;1.25;;;;;;;15.82;54.02;101413.88;5050088;28;20128;-70
2021/08/15 07:16:47;;;;;;;3.40;1.55;;;;;;;15.84;54.46;101408.50;5043630;28;20595;-68
2021/08/15 07:19:12;;;;;;;2.85;1.40;;;;;;;15.98;54.34;101406.81;5039092;28;20044;-69
2021/08/15 07:21:38;;;;;;;2.95;1.45;;;;;;;15.98;53.69;101404.19;5041446;28;20048;-70
2021/08/15 07:24:04;;;;;;;4.05;1.35;;;;;;;15.96;54.23;101403.41;5046190;28;20069;-70
2021/08/15 07:26:30;;;;;;;5.15;1.25;;;;;;;16.02;54.56;101398.78;5058650;28;20321;-69
2021/08/15 07:28:55;;;;;;;2.70;1.40;;;;;;;16.07;54.15;101400.22;5043814;28;20079;-70
2021/08/15 07:31:21;;;;;;;3.05;1.65;;;;;;;16.11;54.07;101403.56;5058674;28;20970;-70
2021/08/15 07:33:46;;;;;;;4.45;1.90;;;;;;;15.97;53.92;101396.34;5047242;28;20037;-70
2021/08/15 07:36:15;;;;;;;4.25;1.90;;;;;;;15.99;53.97;101397.13;5042947;28;20025;-70
2021/08/15 07:38:40;;;;;;;3.20;1.52;;;;;;;16.02;53.76;101401.41;5043632;28;20045;-70
2021/08/15 07:41:06;;;;;;;4.28;1.13;;;;;;;16.02;54.14;101388.22;5058330;28;20037;-70
2021/08/15 07:43:31;;;;;;;2.03;1.63;;;;;;;16.13;53.92;101383.22;5046705;28;20301;-70
2021/08/15 07:45:57;;;;;;;4.40;1.55;;;;;;;16.29;53.57;101392.00;5045441;28;20033;-69
2021/08/15 07:48:23;;;;;;;4.25;1.50;;;;;;;16.38;53.43;101385.34;5040104;28;20437;-70
2021/08/15 07:50:50;;;;;;;3.40;1.48;;;;;;;16.62;53.14;101383.94;5043316;28;20090;-68
2021/08/15 07:53:23;;;;;;;5.85;1.80;;;;;;;16.58;52.34;101382.41;5041883;28;20049;-70
2021/08/15 07:55:51;;;;;;;2.28;0.93;;;;;;;16.50;52.11;101376.72;5038551;28;20517;-70
2021/08/15 07:58:17;;;;;;;1.98;1.27;;;;;;;16.68;51.99;101366.88;5038700;28;20052;-70
2021/08/15 08:00:43;;;;;;;4.05;1.30;;;;;;;16.81;52.20;101377.63;5041853;28;20053;-68
2021/08/15 08:03:08;;;;;;;4.70;1.73;;;;;;;17.01;51.88;101369.38;5039993;28;20541;-70
2021/08/15 08:05:33;;;;;;;2.58;0.90;;;;;;;17.19;51.83;101372.69;5037567;28;20103;-69
2021/08/15 08:07:59;;;;;;;2.70;1.00;;;;;;;17.48;51.51;101378.03;5042407;28;20029;-69
2021/08/15 08:10:25;;;;;;;3.63;1.55;;;;;;;17.61;50.92;101372.84;5039747;28;20103;-69
2021/08/15 08:12:50;;;;;;;1.88;1.10;;;;;;;17.84;51.05;101379.34;5043507;28;20040;-70
2021/08/15 08:15:16;;;;;;;8.07;1.88;;;;;;;17.76;49.37;101376.31;5043674;28;20047;-70
2021/08/15 08:17:41;;;;;;;2.63;1.23;;;;;;;18.26;49.05;101369.66;5038855;28;20038;-68
2021/08/15 08:20:08;;;;;;;4.32;1.33;;;;;;;18.39;48.03;101369.69;5045232;28;20053;-70
2021/08/15 08:22:34;;;;;;;4.78;2.03;;;;;;;18.78;47.53;101366.19;5042142;28;20074;-70
2021/08/15 08:25:03;;;;;;;1.80;0.70;;;;;;;18.97;46.30;101365.00;5041137;28;20021;-70
2021/08/15 08:27:28;;;;;;;2.45;0.70;;;;;;;18.86;46.09;101369.19;5044007;28;20079;-70
2021/08/15 08:29:54;;;;;;;5.00;2.45;;;;;;;18.76;48.14;101362.78;5057706;28;20114;-71
2021/08/15 08:32:19;;;;;;;3.33;0.80;;;;;;;18.95;48.30;101366.91;5058230;28;20037;-68
2021/08/15 08:34:45;;;;;;;3.95;1.05;;;;;;;18.86;46.81;101363.03;5038810;28;20068;-70
2021/08/15 08:37:10;;;;;;;3.28;0.95;;;;;;;18.90;47.52;101356.63;5041949;28;20041;-70
2021/08/15 08:39:36;;;;;;;2.67;1.00;;;;;;;18.91;46.92;101365.41;5034905;28;20053;-69
2021/08/15 08:42:04;;;;;;;2.80;1.33;;;;;;;19.05;47.70;101358.19;5043226;28;20036;-70
2021/08/15 08:44:32;;;;;;;9.55;1.95;;;;;;;18.51;47.22;101366.22;5044563;28;20812;-70
2021/08/15 08:47:06;;;;;;;11.00;2.60;;;;;;;18.78;47.22;101352.94;5051902;28;20357;-71
2021/08/15 08:49:33;;;;;;;9.05;3.05;;;;;;;18.89;46.73;101341.66;5038997;28;20116;-69
2021/08/15 08:51:59;;;;;;;13.52;3.47;;;;;;;19.17;46.32;101345.94;5056910;28;20037;-70
2021/08/15 08:54:27;;;;;;;7.75;2.92;;;;;;;19.50;45.64;101336.53;5036212;28;20033;-70
2021/08/15 08:56:53;;;;;;;7.63;3.50;;;;;;;20.22;44.55;101346.50;5055907;28;20080;-70
2021/08/15 08:59:19;;;;;;;10.98;2.83;;;;;;;20.15;43.12;101338.09;5041916;28;20038;-70
2021/08/15 09:01:45;;;;;;;14.18;3.03;;;;;;;20.26;43.13;101345.28;5051965;28;20057;-72
2021/08/15 09:04:11;;;;;;;7.60;3.05;;;;;;;20.15;43.70;101342.53;5053058;28;20102;-71
2021/08/15 09:06:39;;;;;;;8.25;3.25;;;;;;;20.37;44.51;101342.69;5037326;28;20508;-71
2021/08/15 09:09:16;;;;;;;8.38;4.00;;;;;;;20.59;42.88;101341.09;5054953;28;20055;-71
2021/08/15 09:11:44;;;;;;;8.43;3.67;;;;;;;20.76;43.37;101337.16;5058810;28;20103;-71
2021/08/15 09:14:13;;;;;;;9.75;3.60;;;;;;;20.77;42.86;101337.03;5034741;28;20035;-70
2021/08/15 09:17:01;;;;;;;11.70;3.15;;;;;;;20.42;43.85;101329.94;5037060;28;20058;-70
2021/08/15 09:19:41;;;;;;;10.50;3.72;;;;;;;20.00;44.57;101328.63;5030238;28;20048;-70
2021/08/15 09:22:10;;;;;;;9.65;2.85;;;;;;;20.00;44.43;101325.97;5054622;28;20099;-71
2021/08/15 09:24:51;;;;;;;11.10;3.15;;;;;;;20.04;44.59;101327.44;5055467;28;20036;-71
2021/08/15 09:27:20;;;;;;;15.80;3.95;;;;;;;20.04;44.38;101333.59;5032212;28;20044;-70
2021/08/15 09:30:20;;;;;;;11.45;3.97;;;;;;;20.23;44.10;101327.78;5042211;28;20037;-70
2021/08/15 09:33:04;;;;;;;8.57;3.58;;;;;;;21.01;45.16;101326.34;5058131;28;20035;-70
2021/08/15 09:35:36;;;;;;;9.38;2.58;;;;;;;21.73;42.04;101317.19;5042317;28;20529;-71
2021/08/15 09:38:05;;;;;;;8.35;3.97;;;;;;;21.18;41.70;101311.75;5040318;28;20049;-70
2021/08/15 09:40:44;;;;;;;9.27;3.63;;;;;;;21.28;42.72;101307.41;5034440;28;20365;-71
2021/08/15 09:43:21;;;;;;;11.80;4.15;;;;;;;21.04;42.71;101315.50;5057878;28;20123;-70
2021/08/15 09:45:51;;;;;;;11.73;3.90;;;;;;;20.91;42.94;101310.28;5041130;28;20029;-70
2021/08/15 09:48:34;;;;;;;9.30;4.50;;;;;;;21.40;42.46;101304.72;5049720;28;20047;-71
2021/08/15 09:51:01;;;;;;;10.00;4.05;;;;;;;21.49;42.41;101312.88;5043244;28;20324;-69
2021/08/15 09:53:27;;;;;;;12.55;4.60;;;;;;;20.74;43.72;101302.75;5034573;28;20041;-72
2021/08/15 09:55:52;;;;;;;10.45;4.40;;;;;;;21.51;43.88;101308.28;5061003;28;20086;-70
2021/08/15 09:58:18;;;;;;;14.15;5.65;;;;;;;22.52;39.48;101293.81;5039283;28;20049;-71
2021/08/15 10:00:44;;;;;;;12.68;4.85;;;;;;;22.57;40.30;101286.25;5055116;28;20032;-71
2021/08/15 10:03:10;;;;;;;10.63;5.30;;;;;;;22.36;38.20;101280.94;5033647;28;20037;-70
2021/08/15 10:05:36;;;;;;;6.93;4.15;;;;;;;22.96;39.98;101280.34;5041167;28;20029;-71
2021/08/15 10:08:02;;;;;;;7.93;3.42;;;;;;;23.91;38.60;101276.47;5055428;28;20036;-72
2021/08/15 10:10:28;;;;;;;7.72;4.35;;;;;;;24.48;36.27;101273.91;5042087;28;20090;-70
2021/08/15 10:12:54;;;;;;;7.90;3.28;;;;;;;24.52;36.34;101280.66;5058953;28;20048;-71
2021/08/15 10:15:20;;;;;;;8.65;3.85;;;;;;;23.32;38.82;101260.31;5038538;28;20037;-71
2021/08/15 10:17:50;;;;;;;9.95;4.75;;;;;;;23.53;38.54;101262.03;5059097;28;20083;-71
2021/08/15 10:20:28;;;;;;;9.35;4.30;;;;;;;23.46;38.32;101267.09;5050405;28;20045;-72
2021/08/15 10:23:06;;;;;;;7.03;3.90;;;;;;;23.98;37.92;101250.88;5058083;28;20045;-73
2021/08/15 10:25:33;;;;;;;7.03;3.75;;;;;;;24.76;37.29;101254.28;5038818;28;20024;-71
2021/08/15 10:27:58;;;;;;;3.80;3.00;;;;;;;25.48;34.49;101244.66;5040038;28;20111;-74
2021/08/15 10:30:24;;;;;;;8.52;3.50;;;;;;;25.42;33.70;101244.44;5030472;28;20029;-72
2021/08/15 10:32:56;;;;;;;9.68;5.03;;;;;;;25.39;34.77;101234.88;5046084;28;20044;-71
2021/08/15 10:35:27;;;;;;;13.15;3.88;;;;;;;25.69;34.14;101238.25;5039590;28;20072;-70
2021/08/15 10:38:05;;;;;;;8.02;3.97;;;;;;;25.54;33.13;101229.06;5037894;28;20077;-71
2021/08/15 10:40:42;;;;;;;9.55;4.50;;;;;;;25.70;33.94;101234.56;5036807;28;20505;-72
2021/08/15 10:43:16;;;;;;;5.93;3.55;;;;;;;25.86;33.69;101223.97;5039031;28;20501;-72
2021/08/15 10:45:42;;;;;;;14.18;4.50;;;;;;;24.80;35.74;101225.44;5031456;28;20037;-72
2021/08/15 10:48:08;;;;;;;4.85;3.75;;;;;;;24.68;36.21;101223.94;5054239;28;20389;-70
2021/08/15 10:50:42;;;;;;;4.53;3.38;;;;;;;23.70;36.98;101226.69;5060798;28;20029;-72
2021/08/15 10:53:26;;;;;;;7.07;2.70;;;;;;;24.41;36.43;101221.06;5039682;28;20032;-71
2021/08/15 10:55:56;;;;;;;7.30;3.38;;;;;;;24.34;36.94;101224.41;5058151;28;20539;-71
2021/08/15 10:58:47;;;;;;;12.40;4.80;;;;;;;24.56;35.15;101217.94;5033340;28;20358;-71
2021/08/15 11:01:15;;;;;;;9.45;4.20;;;;;;;24.51;35.70;101215.69;5054152;28;20463;-72
2021/08/15 11:03:47;;;;;;;11.55;3.72;;;;;;;24.16;37.36;101222.47;5058185;28;20515;-72
2021/08/15 11:06:31;;;;;;;7.88;2.90;;;;;;;24.18;36.92;101209.81;5055560;28;20029;-72
2021/08/15 11:09:05;;;;;;;5.78;2.90;;;;;;;24.31;36.98;101208.69;5058403;28;20047;-70
2021/08/15 11:11:33;;;;;;;7.60;3.70;;;;;;;24.08;36.67;101203.69;5043318;28;20037;-73
2021/08/15 11:14:17;;;;;;;7.10;3.58;;;;;;;23.78;37.67;101200.13;5056733;28;20547;-73
2021/08/15 11:16:48;;;;;;;5.45;2.60;;;;;;;23.82;36.81;101193.53;5037508;28;20082;-71
2021/08/15 11:19:13;;;;;;;8.38;3.22;;;;;;;24.54;36.85;101186.00;5041748;28;20052;-72
2021/08/15 11:22:04;;;;;;;5.75;3.08;;;;;;;25.65;36.86;101175.28;5038812;28;20033;-69
2021/08/15 11:24:57;;;;;;;10.07;3.10;;;;;;;25.54;34.67;101180.88;5042255;28;20021;-72
2021/08/15 11:27:39;;;;;;;9.52;3.38;;;;;;;25.40;33.97;101174.19;5048030;28;20073;-72